sensor_id;sensor_type;location;lat;lon;timestamp;pressure;altitude;pressure_sealevel;temperature
12875;BMP180;6505;51.114;13.128;2022-10-22T00:01:13;99105.00;;;19.60
12875;BMP180;6505;51.114;13.128;2022-10-22T00:03:41;99100.00;;;19.60
12875;BMP180;6505;51.114;13.128;2022-10-22T00:06:09;99085.00;;;19.60
12875;BMP180;6505;51.114;13.128;2022-10-22T00:08:37;99083.00;;;19.70
12875;BMP180;6505;51.114;13.128;2022-10-22T00:11:10;99071.00;;;19.60
12875;BMP180;6505;51.114;13.128;2022-10-22T00:13:40;99074.00;;;19.60
12875;BMP180;6505;51.114;13.128;2022-10-22T00:16:09;99074.00;;;19.60
12875;BMP180;6505;51.114;13.128;2022-10-22T00:18:38;99075.00;;;19.60
12875;BMP180;6505;51.114;13.128;2022-10-22T00:21:07;99077.00;;;19.60
12875;BMP180;6505;51.114;13.128;2022-10-22T00:23:39;99083.00;;;19.60
12875;BMP180;6505;51.114;13.128;2022-10-22T00:26:07;99073.00;;;19.60
12875;BMP180;6505;51.114;13.128;2022-10-22T00:28:35;99067.00;;;19.60
12875;BMP180;6505;51.114;13.128;2022-10-22T00:31:05;99075.00;;;19.60
12875;BMP180;6505;51.114;13.128;2022-10-22T00:33:33;99082.00;;;19.60
12875;BMP180;6505;51.114;13.128;2022-10-22T00:36:01;99072.00;;;19.60
12875;BMP180;6505;51.114;13.128;2022-10-22T00:38:30;99069.00;;;19.70
12875;BMP180;6505;51.114;13.128;2022-10-22T00:40:58;99073.00;;;19.50
12875;BMP180;6505;51.114;13.128;2022-10-22T00:43:31;99069.00;;;19.60
12875;BMP180;6505;51.114;13.128;2022-10-22T00:45:59;99098.00;;;19.60
12875;BMP180;6505;51.114;13.128;2022-10-22T00:48:31;99095.00;;;19.60
12875;BMP180;6505;51.114;13.128;2022-10-22T00:51:04;99090.00;;;19.60
12875;BMP180;6505;51.114;13.128;2022-10-22T00:53:37;99094.00;;;19.60
12875;BMP180;6505;51.114;13.128;2022-10-22T00:56:08;99099.00;;;19.60
12875;BMP180;6505;51.114;13.128;2022-10-22T00:58:43;99099.00;;;19.60
12875;BMP180;6505;51.114;13.128;2022-10-22T01:01:15;99097.00;;;19.60
12875;BMP180;6505;51.114;13.128;2022-10-22T01:03:47;99090.00;;;19.60
12875;BMP180;6505;51.114;13.128;2022-10-22T01:06:23;99085.00;;;19.60
12875;BMP180;6505;51.114;13.128;2022-10-22T01:09:03;99083.00;;;19.60
12875;BMP180;6505;51.114;13.128;2022-10-22T01:11:48;99096.00;;;19.60
12875;BMP180;6505;51.114;13.128;2022-10-22T01:14:31;99087.00;;;19.60
12875;BMP180;6505;51.114;13.128;2022-10-22T01:17:08;99087.00;;;19.60
12875;BMP180;6505;51.114;13.128;2022-10-22T01:20:05;99102.00;;;19.60
12875;BMP180;6505;51.114;13.128;2022-10-22T01:22:44;99094.00;;;19.60
12875;BMP180;6505;51.114;13.128;2022-10-22T01:25:28;99092.00;;;19.60
12875;BMP180;6505;51.114;13.128;2022-10-22T01:28:16;99092.00;;;19.60
12875;BMP180;6505;51.114;13.128;2022-10-22T01:30:49;99092.00;;;19.60
12875;BMP180;6505;51.114;13.128;2022-10-22T01:33:21;99091.00;;;19.70
12875;BMP180;6505;51.114;13.128;2022-10-22T01:35:52;99090.00;;;19.70
12875;BMP180;6505;51.114;13.128;2022-10-22T01:38:23;99099.00;;;19.70
12875;BMP180;6505;51.114;13.128;2022-10-22T01:40:52;99098.00;;;19.70
12875;BMP180;6505;51.114;13.128;2022-10-22T01:43:21;99099.00;;;19.70
12875;BMP180;6505;51.114;13.128;2022-10-22T01:45:57;99097.00;;;19.70
12875;BMP180;6505;51.114;13.128;2022-10-22T01:48:41;99093.00;;;19.70
12875;BMP180;6505;51.114;13.128;2022-10-22T01:51:30;99091.00;;;19.70
12875;BMP180;6505;51.114;13.128;2022-10-22T01:54:16;99097.00;;;19.60
12875;BMP180;6505;51.114;13.128;2022-10-22T01:57:01;99100.00;;;19.70
12875;BMP180;6505;51.114;13.128;2022-10-22T01:59:43;99088.00;;;19.60
12875;BMP180;6505;51.114;13.128;2022-10-22T02:02:29;99086.00;;;19.70
12875;BMP180;6505;51.114;13.128;2022-10-22T02:05:06;99082.00;;;19.70
12875;BMP180;6505;51.114;13.128;2022-10-22T02:07:42;99095.00;;;19.70
12875;BMP180;6505;51.114;13.128;2022-10-22T02:10:12;99082.00;;;19.70
12875;BMP180;6505;51.114;13.128;2022-10-22T02:12:43;99083.00;;;19.70
12875;BMP180;6505;51.114;13.128;2022-10-22T02:15:14;99070.00;;;19.70
12875;BMP180;6505;51.114;13.128;2022-10-22T02:17:46;99070.00;;;19.70
12875;BMP180;6505;51.114;13.128;2022-10-22T02:20:19;99075.00;;;19.70
12875;BMP180;6505;51.114;13.128;2022-10-22T02:22:49;99066.00;;;19.70
12875;BMP180;6505;51.114;13.128;2022-10-22T02:25:20;99070.00;;;19.70
12875;BMP180;6505;51.114;13.128;2022-10-22T02:27:58;99069.00;;;19.70
12875;BMP180;6505;51.114;13.128;2022-10-22T02:30:29;99055.00;;;19.70
12875;BMP180;6505;51.114;13.128;2022-10-22T02:33:06;99051.00;;;19.70
12875;BMP180;6505;51.114;13.128;2022-10-22T02:35:37;99061.00;;;19.70
12875;BMP180;6505;51.114;13.128;2022-10-22T02:38:07;99072.00;;;19.70
12875;BMP180;6505;51.114;13.128;2022-10-22T02:40:36;99064.00;;;19.80
12875;BMP180;6505;51.114;13.128;2022-10-22T02:43:05;99067.00;;;19.70
12875;BMP180;6505;51.114;13.128;2022-10-22T02:45:34;99060.00;;;19.70
12875;BMP180;6505;51.114;13.128;2022-10-22T02:48:04;99052.00;;;19.80
12875;BMP180;6505;51.114;13.128;2022-10-22T02:50:33;99065.00;;;19.80
12875;BMP180;6505;51.114;13.128;2022-10-22T02:53:01;99062.00;;;19.80
12875;BMP180;6505;51.114;13.128;2022-10-22T02:55:29;99067.00;;;19.80
12875;BMP180;6505;51.114;13.128;2022-10-22T02:57:57;99070.00;;;19.80
12875;BMP180;6505;51.114;13.128;2022-10-22T03:00:25;99060.00;;;19.80
12875;BMP180;6505;51.114;13.128;2022-10-22T03:02:53;99052.00;;;19.80
12875;BMP180;6505;51.114;13.128;2022-10-22T03:05:23;99063.00;;;19.80
12875;BMP180;6505;51.114;13.128;2022-10-22T03:07:51;99058.00;;;19.80
12875;BMP180;6505;51.114;13.128;2022-10-22T03:10:19;99070.00;;;19.80
12875;BMP180;6505;51.114;13.128;2022-10-22T03:12:47;99060.00;;;19.80
12875;BMP180;6505;51.114;13.128;2022-10-22T03:15:15;99048.00;;;19.80
12875;BMP180;6505;51.114;13.128;2022-10-22T03:17:44;99032.00;;;19.80
12875;BMP180;6505;51.114;13.128;2022-10-22T03:20:12;99073.00;;;19.80
12875;BMP180;6505;51.114;13.128;2022-10-22T03:22:42;99069.00;;;19.80
12875;BMP180;6505;51.114;13.128;2022-10-22T03:25:16;99065.00;;;19.80
12875;BMP180;6505;51.114;13.128;2022-10-22T03:27:47;99074.00;;;19.80
12875;BMP180;6505;51.114;13.128;2022-10-22T03:30:17;99089.00;;;19.80
12875;BMP180;6505;51.114;13.128;2022-10-22T03:32:46;99086.00;;;19.80
12875;BMP180;6505;51.114;13.128;2022-10-22T03:35:14;99089.00;;;19.80
12875;BMP180;6505;51.114;13.128;2022-10-22T03:37:44;99096.00;;;19.80
12875;BMP180;6505;51.114;13.128;2022-10-22T03:40:13;99089.00;;;19.80
12875;BMP180;6505;51.114;13.128;2022-10-22T03:42:41;99086.00;;;19.80
12875;BMP180;6505;51.114;13.128;2022-10-22T03:45:10;99105.00;;;19.80
12875;BMP180;6505;51.114;13.128;2022-10-22T03:47:38;99097.00;;;19.80
12875;BMP180;6505;51.114;13.128;2022-10-22T03:50:08;99119.00;;;19.80
12875;BMP180;6505;51.114;13.128;2022-10-22T03:52:38;99092.00;;;19.80
12875;BMP180;6505;51.114;13.128;2022-10-22T03:55:08;99108.00;;;19.80
12875;BMP180;6505;51.114;13.128;2022-10-22T03:57:36;99100.00;;;19.80
12875;BMP180;6505;51.114;13.128;2022-10-22T04:00:07;99101.00;;;19.80
12875;BMP180;6505;51.114;13.128;2022-10-22T04:02:37;99105.00;;;19.80
12875;BMP180;6505;51.114;13.128;2022-10-22T04:05:06;99085.00;;;19.80
12875;BMP180;6505;51.114;13.128;2022-10-22T04:07:34;99084.00;;;19.80
12875;BMP180;6505;51.114;13.128;2022-10-22T04:10:04;99083.00;;;19.80
12875;BMP180;6505;51.114;13.128;2022-10-22T04:12:33;99085.00;;;19.80
12875;BMP180;6505;51.114;13.128;2022-10-22T04:15:02;99084.00;;;19.80
12875;BMP180;6505;51.114;13.128;2022-10-22T04:17:33;99088.00;;;19.80
12875;BMP180;6505;51.114;13.128;2022-10-22T04:20:04;99089.00;;;19.80
12875;BMP180;6505;51.114;13.128;2022-10-22T04:22:33;99080.00;;;19.80
12875;BMP180;6505;51.114;13.128;2022-10-22T04:25:02;99086.00;;;19.80
12875;BMP180;6505;51.114;13.128;2022-10-22T04:27:32;99085.00;;;19.80
12875;BMP180;6505;51.114;13.128;2022-10-22T04:30:01;99087.00;;;19.80
12875;BMP180;6505;51.114;13.128;2022-10-22T04:32:29;99085.00;;;19.80
12875;BMP180;6505;51.114;13.128;2022-10-22T04:34:57;99098.00;;;19.80
12875;BMP180;6505;51.114;13.128;2022-10-22T04:37:25;99090.00;;;19.80
12875;BMP180;6505;51.114;13.128;2022-10-22T04:39:53;99099.00;;;19.80
12875;BMP180;6505;51.114;13.128;2022-10-22T04:42:24;99113.00;;;19.80
12875;BMP180;6505;51.114;13.128;2022-10-22T04:44:53;99108.00;;;19.80
12875;BMP180;6505;51.114;13.128;2022-10-22T04:47:21;99111.00;;;19.80
12875;BMP180;6505;51.114;13.128;2022-10-22T04:49:49;99101.00;;;19.80
12875;BMP180;6505;51.114;13.128;2022-10-22T04:52:17;99104.00;;;19.80
12875;BMP180;6505;51.114;13.128;2022-10-22T04:54:46;99095.00;;;19.80
12875;BMP180;6505;51.114;13.128;2022-10-22T04:57:14;99083.00;;;19.80
12875;BMP180;6505;51.114;13.128;2022-10-22T04:59:42;99084.00;;;19.80
12875;BMP180;6505;51.114;13.128;2022-10-22T05:02:11;99086.00;;;19.80
12875;BMP180;6505;51.114;13.128;2022-10-22T05:04:42;99084.00;;;19.80
12875;BMP180;6505;51.114;13.128;2022-10-22T05:07:10;99087.00;;;19.80
12875;BMP180;6505;51.114;13.128;2022-10-22T05:09:38;99090.00;;;19.80
12875;BMP180;6505;51.114;13.128;2022-10-22T05:12:06;99100.00;;;19.80
12875;BMP180;6505;51.114;13.128;2022-10-22T05:14:34;99105.00;;;19.80
12875;BMP180;6505;51.114;13.128;2022-10-22T05:17:08;99103.00;;;19.80
12875;BMP180;6505;51.114;13.128;2022-10-22T05:19:37;99118.00;;;19.80
12875;BMP180;6505;51.114;13.128;2022-10-22T05:22:05;99113.00;;;19.80
12875;BMP180;6505;51.114;13.128;2022-10-22T05:24:34;99108.00;;;19.80
12875;BMP180;6505;51.114;13.128;2022-10-22T05:27:03;99119.00;;;19.80
12875;BMP180;6505;51.114;13.128;2022-10-22T05:29:31;99121.00;;;19.80
12875;BMP180;6505;51.114;13.128;2022-10-22T05:31:59;99138.00;;;19.80
12875;BMP180;6505;51.114;13.128;2022-10-22T05:34:27;99143.00;;;19.90
12875;BMP180;6505;51.114;13.128;2022-10-22T05:36:56;99136.00;;;19.80
12875;BMP180;6505;51.114;13.128;2022-10-22T05:39:24;99133.00;;;19.90
12875;BMP180;6505;51.114;13.128;2022-10-22T05:41:52;99119.00;;;19.90
12875;BMP180;6505;51.114;13.128;2022-10-22T05:44:20;99128.00;;;19.80
12875;BMP180;6505;51.114;13.128;2022-10-22T05:46:49;99126.00;;;19.90
12875;BMP180;6505;51.114;13.128;2022-10-22T05:49:17;99137.00;;;19.80
12875;BMP180;6505;51.114;13.128;2022-10-22T05:51:45;99142.00;;;19.90
12875;BMP180;6505;51.114;13.128;2022-10-22T05:54:17;99139.00;;;19.80
12875;BMP180;6505;51.114;13.128;2022-10-22T05:56:46;99122.00;;;19.80
12875;BMP180;6505;51.114;13.128;2022-10-22T05:59:14;99126.00;;;19.80
12875;BMP180;6505;51.114;13.128;2022-10-22T06:01:42;99134.00;;;19.90
12875;BMP180;6505;51.114;13.128;2022-10-22T06:04:12;99144.00;;;19.90
12875;BMP180;6505;51.114;13.128;2022-10-22T06:06:44;99147.00;;;19.80
12875;BMP180;6505;51.114;13.128;2022-10-22T06:09:19;99148.00;;;19.70
12875;BMP180;6505;51.114;13.128;2022-10-22T06:11:49;99153.00;;;19.90
12875;BMP180;6505;51.114;13.128;2022-10-22T06:14:19;99153.00;;;19.80
12875;BMP180;6505;51.114;13.128;2022-10-22T06:16:47;99169.00;;;19.90
12875;BMP180;6505;51.114;13.128;2022-10-22T06:19:19;99158.00;;;19.80
12875;BMP180;6505;51.114;13.128;2022-10-22T06:21:47;99156.00;;;19.80
12875;BMP180;6505;51.114;13.128;2022-10-22T06:24:17;99157.00;;;19.80
12875;BMP180;6505;51.114;13.128;2022-10-22T06:26:50;99170.00;;;19.80
12875;BMP180;6505;51.114;13.128;2022-10-22T06:29:18;99161.00;;;19.90
12875;BMP180;6505;51.114;13.128;2022-10-22T06:31:47;99172.00;;;19.90
12875;BMP180;6505;51.114;13.128;2022-10-22T06:34:16;99180.00;;;19.90
12875;BMP180;6505;51.114;13.128;2022-10-22T06:36:45;99193.00;;;19.90
12875;BMP180;6505;51.114;13.128;2022-10-22T06:39:17;99206.00;;;19.80
12875;BMP180;6505;51.114;13.128;2022-10-22T06:41:45;99211.00;;;19.80
12875;BMP180;6505;51.114;13.128;2022-10-22T06:44:18;99214.00;;;19.80
12875;BMP180;6505;51.114;13.128;2022-10-22T06:46:49;99203.00;;;19.80
12875;BMP180;6505;51.114;13.128;2022-10-22T06:49:20;99202.00;;;19.90
12875;BMP180;6505;51.114;13.128;2022-10-22T06:51:50;99214.00;;;19.90
12875;BMP180;6505;51.114;13.128;2022-10-22T06:54:20;99213.00;;;19.80
12875;BMP180;6505;51.114;13.128;2022-10-22T06:56:48;99220.00;;;19.90
12875;BMP180;6505;51.114;13.128;2022-10-22T06:59:17;99218.00;;;19.90
12875;BMP180;6505;51.114;13.128;2022-10-22T07:01:45;99233.00;;;19.90
12875;BMP180;6505;51.114;13.128;2022-10-22T07:04:13;99225.00;;;19.90
12875;BMP180;6505;51.114;13.128;2022-10-22T07:06:41;99227.00;;;19.90
12875;BMP180;6505;51.114;13.128;2022-10-22T07:09:09;99234.00;;;19.90
12875;BMP180;6505;51.114;13.128;2022-10-22T07:11:41;99245.00;;;19.90
12875;BMP180;6505;51.114;13.128;2022-10-22T07:14:10;99246.00;;;19.90
12875;BMP180;6505;51.114;13.128;2022-10-22T07:16:39;99250.00;;;19.90
12875;BMP180;6505;51.114;13.128;2022-10-22T07:19:08;99258.00;;;19.90
12875;BMP180;6505;51.114;13.128;2022-10-22T07:21:37;99261.00;;;19.90
12875;BMP180;6505;51.114;13.128;2022-10-22T07:24:06;99268.00;;;19.90
12875;BMP180;6505;51.114;13.128;2022-10-22T07:26:36;99270.00;;;19.90
12875;BMP180;6505;51.114;13.128;2022-10-22T07:29:05;99269.00;;;19.90
12875;BMP180;6505;51.114;13.128;2022-10-22T07:31:33;99265.00;;;19.90
12875;BMP180;6505;51.114;13.128;2022-10-22T07:34:02;99263.00;;;19.90
12875;BMP180;6505;51.114;13.128;2022-10-22T07:36:30;99265.00;;;19.80
12875;BMP180;6505;51.114;13.128;2022-10-22T07:38:59;99249.00;;;19.90
12875;BMP180;6505;51.114;13.128;2022-10-22T07:41:28;99280.00;;;19.90
12875;BMP180;6505;51.114;13.128;2022-10-22T07:43:57;99283.00;;;19.90
12875;BMP180;6505;51.114;13.128;2022-10-22T07:46:27;99289.00;;;19.90
12875;BMP180;6505;51.114;13.128;2022-10-22T07:48:55;99286.00;;;19.90
12875;BMP180;6505;51.114;13.128;2022-10-22T07:51:23;99298.00;;;19.90
12875;BMP180;6505;51.114;13.128;2022-10-22T07:53:51;99298.00;;;19.90
12875;BMP180;6505;51.114;13.128;2022-10-22T07:56:19;99309.00;;;19.90
12875;BMP180;6505;51.114;13.128;2022-10-22T07:58:47;99306.00;;;19.90
12875;BMP180;6505;51.114;13.128;2022-10-22T08:01:15;99307.00;;;20.00
12875;BMP180;6505;51.114;13.128;2022-10-22T08:03:45;99310.00;;;19.90
12875;BMP180;6505;51.114;13.128;2022-10-22T08:06:14;99308.00;;;20.00
12875;BMP180;6505;51.114;13.128;2022-10-22T08:08:43;99313.00;;;20.00
12875;BMP180;6505;51.114;13.128;2022-10-22T08:11:12;99321.00;;;20.00
12875;BMP180;6505;51.114;13.128;2022-10-22T08:13:41;99323.00;;;20.00
12875;BMP180;6505;51.114;13.128;2022-10-22T08:16:13;99324.00;;;20.00
12875;BMP180;6505;51.114;13.128;2022-10-22T08:18:41;99332.00;;;20.00
12875;BMP180;6505;51.114;13.128;2022-10-22T08:21:11;99326.00;;;20.00
12875;BMP180;6505;51.114;13.128;2022-10-22T08:23:39;99328.00;;;20.00
12875;BMP180;6505;51.114;13.128;2022-10-22T08:26:08;99334.00;;;20.00
12875;BMP180;6505;51.114;13.128;2022-10-22T08:28:36;99340.00;;;20.00
12875;BMP180;6505;51.114;13.128;2022-10-22T08:31:05;99331.00;;;20.00
12875;BMP180;6505;51.114;13.128;2022-10-22T08:33:36;99342.00;;;20.00
12875;BMP180;6505;51.114;13.128;2022-10-22T08:36:10;99327.00;;;20.00
12875;BMP180;6505;51.114;13.128;2022-10-22T08:38:40;99339.00;;;20.00
12875;BMP180;6505;51.114;13.128;2022-10-22T08:41:12;99351.00;;;20.00
12875;BMP180;6505;51.114;13.128;2022-10-22T08:44:14;99345.00;;;20.00
12875;BMP180;6505;51.114;13.128;2022-10-22T08:47:11;99339.00;;;20.00
12875;BMP180;6505;51.114;13.128;2022-10-22T08:49:48;99336.00;;;20.00
12875;BMP180;6505;51.114;13.128;2022-10-22T08:52:18;99332.00;;;20.00
12875;BMP180;6505;51.114;13.128;2022-10-22T08:54:52;99338.00;;;20.00
12875;BMP180;6505;51.114;13.128;2022-10-22T08:57:45;99338.00;;;20.00
12875;BMP180;6505;51.114;13.128;2022-10-22T09:00:23;99333.00;;;20.00
12875;BMP180;6505;51.114;13.128;2022-10-22T09:03:06;99334.00;;;20.00
12875;BMP180;6505;51.114;13.128;2022-10-22T09:05:47;99327.00;;;20.00
12875;BMP180;6505;51.114;13.128;2022-10-22T09:08:22;99326.00;;;20.10
12875;BMP180;6505;51.114;13.128;2022-10-22T09:10:57;99324.00;;;20.10
12875;BMP180;6505;51.114;13.128;2022-10-22T09:13:28;99323.00;;;20.10
12875;BMP180;6505;51.114;13.128;2022-10-22T09:16:00;99321.00;;;20.10
12875;BMP180;6505;51.114;13.128;2022-10-22T09:18:39;99329.00;;;20.10
12875;BMP180;6505;51.114;13.128;2022-10-22T09:21:22;99331.00;;;20.10
12875;BMP180;6505;51.114;13.128;2022-10-22T09:24:04;99330.00;;;20.10
12875;BMP180;6505;51.114;13.128;2022-10-22T09:26:38;99326.00;;;20.10
12875;BMP180;6505;51.114;13.128;2022-10-22T09:29:17;99330.00;;;20.10
12875;BMP180;6505;51.114;13.128;2022-10-22T09:31:46;99326.00;;;20.20
12875;BMP180;6505;51.114;13.128;2022-10-22T09:34:19;99326.00;;;20.20
12875;BMP180;6505;51.114;13.128;2022-10-22T09:36:57;99319.00;;;20.10
12875;BMP180;6505;51.114;13.128;2022-10-22T09:39:31;99318.00;;;20.20
12875;BMP180;6505;51.114;13.128;2022-10-22T09:42:01;99327.00;;;20.20
12875;BMP180;6505;51.114;13.128;2022-10-22T09:44:32;99326.00;;;20.20
12875;BMP180;6505;51.114;13.128;2022-10-22T09:47:04;99322.00;;;20.20
12875;BMP180;6505;51.114;13.128;2022-10-22T09:49:35;99332.00;;;20.30
12875;BMP180;6505;51.114;13.128;2022-10-22T09:52:25;99342.00;;;20.20
12875;BMP180;6505;51.114;13.128;2022-10-22T09:54:55;99338.00;;;20.30
12875;BMP180;6505;51.114;13.128;2022-10-22T09:57:24;99338.00;;;20.30
12875;BMP180;6505;51.114;13.128;2022-10-22T09:59:54;99347.00;;;20.30
12875;BMP180;6505;51.114;13.128;2022-10-22T10:02:27;99352.00;;;20.30
12875;BMP180;6505;51.114;13.128;2022-10-22T10:05:19;99347.00;;;20.20
12875;BMP180;6505;51.114;13.128;2022-10-22T10:07:47;99359.00;;;20.30
12875;BMP180;6505;51.114;13.128;2022-10-22T10:10:27;99360.00;;;20.30
12875;BMP180;6505;51.114;13.128;2022-10-22T10:13:14;99363.00;;;20.30
12875;BMP180;6505;51.114;13.128;2022-10-22T10:15:53;99369.00;;;20.30
12875;BMP180;6505;51.114;13.128;2022-10-22T10:18:34;99377.00;;;20.30
12875;BMP180;6505;51.114;13.128;2022-10-22T10:21:13;99360.00;;;20.40
12875;BMP180;6505;51.114;13.128;2022-10-22T10:23:54;99362.00;;;20.40
12875;BMP180;6505;51.114;13.128;2022-10-22T10:26:30;99362.00;;;20.40
12875;BMP180;6505;51.114;13.128;2022-10-22T10:29:17;99351.00;;;20.40
12875;BMP180;6505;51.114;13.128;2022-10-22T10:32:08;99357.00;;;20.40
12875;BMP180;6505;51.114;13.128;2022-10-22T10:34:47;99363.00;;;20.40
12875;BMP180;6505;51.114;13.128;2022-10-22T10:37:23;99363.00;;;20.40
12875;BMP180;6505;51.114;13.128;2022-10-22T10:40:18;99362.00;;;20.40
12875;BMP180;6505;51.114;13.128;2022-10-22T10:42:58;99366.00;;;20.50
12875;BMP180;6505;51.114;13.128;2022-10-22T10:45:36;99381.00;;;20.50
12875;BMP180;6505;51.114;13.128;2022-10-22T10:48:29;99370.00;;;20.50
12875;BMP180;6505;51.114;13.128;2022-10-22T10:51:10;99333.00;;;20.50
12875;BMP180;6505;51.114;13.128;2022-10-22T10:56:50;99373.00;;;20.50
12875;BMP180;6505;51.114;13.128;2022-10-22T10:59:37;99377.00;;;20.50
12875;BMP180;6505;51.114;13.128;2022-10-22T11:02:37;99370.00;;;20.50
12875;BMP180;6505;51.114;13.128;2022-10-22T11:05:25;99371.00;;;20.50
12875;BMP180;6505;51.114;13.128;2022-10-22T11:07:59;99383.00;;;20.60
12875;BMP180;6505;51.114;13.128;2022-10-22T11:10:33;99371.00;;;20.60
12875;BMP180;6505;51.114;13.128;2022-10-22T11:13:13;99369.00;;;20.60
12875;BMP180;6505;51.114;13.128;2022-10-22T11:15:49;99380.00;;;20.60
12875;BMP180;6505;51.114;13.128;2022-10-22T11:18:26;99378.00;;;20.60
12875;BMP180;6505;51.114;13.128;2022-10-22T11:21:18;99383.00;;;20.60
12875;BMP180;6505;51.114;13.128;2022-10-22T11:23:53;99384.00;;;20.60
12875;BMP180;6505;51.114;13.128;2022-10-22T11:26:39;99382.00;;;20.60
12875;BMP180;6505;51.114;13.128;2022-10-22T11:29:16;99389.00;;;20.70
12875;BMP180;6505;51.114;13.128;2022-10-22T11:31:48;99375.00;;;20.70
12875;BMP180;6505;51.114;13.128;2022-10-22T11:34:21;99369.00;;;20.70
12875;BMP180;6505;51.114;13.128;2022-10-22T11:37:06;99371.00;;;20.80
12875;BMP180;6505;51.114;13.128;2022-10-22T11:39:42;99375.00;;;20.70
12875;BMP180;6505;51.114;13.128;2022-10-22T11:42:18;99377.00;;;20.70
12875;BMP180;6505;51.114;13.128;2022-10-22T11:44:56;99382.00;;;20.80
12875;BMP180;6505;51.114;13.128;2022-10-22T11:47:31;99377.00;;;20.80
12875;BMP180;6505;51.114;13.128;2022-10-22T11:50:18;99376.00;;;20.80
12875;BMP180;6505;51.114;13.128;2022-10-22T11:52:58;99373.00;;;20.80
12875;BMP180;6505;51.114;13.128;2022-10-22T11:55:33;99380.00;;;20.80
12875;BMP180;6505;51.114;13.128;2022-10-22T11:58:25;99375.00;;;20.80
12875;BMP180;6505;51.114;13.128;2022-10-22T12:00:56;99377.00;;;20.90
12875;BMP180;6505;51.114;13.128;2022-10-22T12:03:39;99387.00;;;20.80
12875;BMP180;6505;51.114;13.128;2022-10-22T12:06:20;99396.00;;;20.90
12875;BMP180;6505;51.114;13.128;2022-10-22T12:08:58;99403.00;;;20.90
12875;BMP180;6505;51.114;13.128;2022-10-22T12:11:35;99397.00;;;20.90
12875;BMP180;6505;51.114;13.128;2022-10-22T12:14:18;99389.00;;;20.90
12875;BMP180;6505;51.114;13.128;2022-10-22T12:16:53;99387.00;;;20.80
12875;BMP180;6505;51.114;13.128;2022-10-22T12:19:29;99388.00;;;20.90
12875;BMP180;6505;51.114;13.128;2022-10-22T12:22:01;99389.00;;;21.00
12875;BMP180;6505;51.114;13.128;2022-10-22T12:24:37;99393.00;;;21.00
12875;BMP180;6505;51.114;13.128;2022-10-22T12:27:21;99394.00;;;20.90
12875;BMP180;6505;51.114;13.128;2022-10-22T12:29:54;99388.00;;;21.00
12875;BMP180;6505;51.114;13.128;2022-10-22T12:32:31;99393.00;;;21.00
12875;BMP180;6505;51.114;13.128;2022-10-22T12:35:04;99390.00;;;20.90
12875;BMP180;6505;51.114;13.128;2022-10-22T12:37:35;99408.00;;;21.00
12875;BMP180;6505;51.114;13.128;2022-10-22T12:40:16;99389.00;;;21.00
12875;BMP180;6505;51.114;13.128;2022-10-22T12:42:50;99389.00;;;21.00
12875;BMP180;6505;51.114;13.128;2022-10-22T12:45:19;99393.00;;;21.10
12875;BMP180;6505;51.114;13.128;2022-10-22T12:47:51;99392.00;;;21.10
12875;BMP180;6505;51.114;13.128;2022-10-22T12:50:31;99393.00;;;21.00
12875;BMP180;6505;51.114;13.128;2022-10-22T12:53:00;99400.00;;;21.10
12875;BMP180;6505;51.114;13.128;2022-10-22T12:55:32;99398.00;;;21.10
12875;BMP180;6505;51.114;13.128;2022-10-22T12:58:04;99393.00;;;21.10
12875;BMP180;6505;51.114;13.128;2022-10-22T13:00:34;99390.00;;;21.10
12875;BMP180;6505;51.114;13.128;2022-10-22T13:03:05;99386.00;;;21.10
12875;BMP180;6505;51.114;13.128;2022-10-22T13:05:35;99394.00;;;21.10
12875;BMP180;6505;51.114;13.128;2022-10-22T13:08:09;99391.00;;;21.10
12875;BMP180;6505;51.114;13.128;2022-10-22T13:10:47;99387.00;;;21.10
12875;BMP180;6505;51.114;13.128;2022-10-22T13:13:31;99390.00;;;21.10
12875;BMP180;6505;51.114;13.128;2022-10-22T13:16:22;99397.00;;;21.10
12875;BMP180;6505;51.114;13.128;2022-10-22T13:18:53;99397.00;;;21.20
12875;BMP180;6505;51.114;13.128;2022-10-22T13:21:28;99405.00;;;21.10
12875;BMP180;6505;51.114;13.128;2022-10-22T13:23:59;99399.00;;;21.20
12875;BMP180;6505;51.114;13.128;2022-10-22T13:26:34;99403.00;;;21.20
12875;BMP180;6505;51.114;13.128;2022-10-22T13:29:10;99400.00;;;21.10
12875;BMP180;6505;51.114;13.128;2022-10-22T13:31:45;99391.00;;;21.20
12875;BMP180;6505;51.114;13.128;2022-10-22T13:34:17;99373.00;;;21.20
12875;BMP180;6505;51.114;13.128;2022-10-22T13:36:48;99397.00;;;21.20
12875;BMP180;6505;51.114;13.128;2022-10-22T13:39:18;99394.00;;;21.30
12875;BMP180;6505;51.114;13.128;2022-10-22T13:41:47;99397.00;;;21.30
12875;BMP180;6505;51.114;13.128;2022-10-22T13:44:17;99389.00;;;21.30
12875;BMP180;6505;51.114;13.128;2022-10-22T13:46:46;99407.00;;;21.30
12875;BMP180;6505;51.114;13.128;2022-10-22T13:49:17;99395.00;;;21.30
12875;BMP180;6505;51.114;13.128;2022-10-22T13:51:48;99395.00;;;21.30
12875;BMP180;6505;51.114;13.128;2022-10-22T13:54:21;99404.00;;;21.30
12875;BMP180;6505;51.114;13.128;2022-10-22T13:56:50;99405.00;;;21.30
12875;BMP180;6505;51.114;13.128;2022-10-22T13:59:19;99402.00;;;21.30
12875;BMP180;6505;51.114;13.128;2022-10-22T14:01:50;99403.00;;;21.30
12875;BMP180;6505;51.114;13.128;2022-10-22T14:04:18;99407.00;;;21.40
12875;BMP180;6505;51.114;13.128;2022-10-22T14:06:48;99412.00;;;21.40
12875;BMP180;6505;51.114;13.128;2022-10-22T14:09:21;99413.00;;;21.30
12875;BMP180;6505;51.114;13.128;2022-10-22T14:11:49;99403.00;;;21.40
12875;BMP180;6505;51.114;13.128;2022-10-22T14:14:17;99406.00;;;21.40
12875;BMP180;6505;51.114;13.128;2022-10-22T14:16:45;99415.00;;;21.40
12875;BMP180;6505;51.114;13.128;2022-10-22T14:19:16;99406.00;;;21.40
12875;BMP180;6505;51.114;13.128;2022-10-22T14:21:44;99416.00;;;21.40
12875;BMP180;6505;51.114;13.128;2022-10-22T14:24:14;99411.00;;;21.40
12875;BMP180;6505;51.114;13.128;2022-10-22T14:26:42;99422.00;;;21.40
12875;BMP180;6505;51.114;13.128;2022-10-22T14:29:10;99421.00;;;21.40
12875;BMP180;6505;51.114;13.128;2022-10-22T14:31:39;99413.00;;;21.40
12875;BMP180;6505;51.114;13.128;2022-10-22T14:34:11;99418.00;;;21.40
12875;BMP180;6505;51.114;13.128;2022-10-22T14:36:39;99412.00;;;21.50
12875;BMP180;6505;51.114;13.128;2022-10-22T14:39:09;99418.00;;;21.50
12875;BMP180;6505;51.114;13.128;2022-10-22T14:41:40;99432.00;;;21.50
12875;BMP180;6505;51.114;13.128;2022-10-22T14:44:11;99425.00;;;21.40